sensor_id;sensor_type;location;lat;lon;timestamp;P1;durP1;ratioP1;P2;durP2;ratioP2
7833;SDS011;3962;42.696;23.354;2023-05-16T00:05:16;20.47;;;15.97;;
7833;SDS011;3962;42.696;23.354;2023-05-16T00:07:51;24.37;;;17.73;;
7833;SDS011;3962;42.696;23.354;2023-05-16T00:10:27;24.23;;;17.27;;
7833;SDS011;3962;42.696;23.354;2023-05-16T00:12:56;24.33;;;17.70;;
7833;SDS011;3962;42.696;23.354;2023-05-16T00:15:26;26.30;;;17.93;;
7833;SDS011;3962;42.696;23.354;2023-05-16T00:17:54;30.23;;;19.33;;
7833;SDS011;3962;42.696;23.354;2023-05-16T00:22:58;24.43;;;17.40;;
7833;SDS011;3962;42.696;23.354;2023-05-16T00:27:59;27.47;;;19.10;;
7833;SDS011;3962;42.696;23.354;2023-05-16T00:30:26;26.70;;;18.40;;
7833;SDS011;3962;42.696;23.354;2023-05-16T00:32:54;29.20;;;19.57;;
7833;SDS011;3962;42.696;23.354;2023-05-16T00:35:21;25.80;;;18.30;;
7833;SDS011;3962;42.696;23.354;2023-05-16T00:38:01;26.87;;;18.33;;
7833;SDS011;3962;42.696;23.354;2023-05-16T00:40:28;22.57;;;17.83;;
7833;SDS011;3962;42.696;23.354;2023-05-16T00:42:58;24.67;;;19.07;;
7833;SDS011;3962;42.696;23.354;2023-05-16T00:45:25;24.57;;;18.17;;
7833;SDS011;3962;42.696;23.354;2023-05-16T00:47:54;25.90;;;18.17;;
7833;SDS011;3962;42.696;23.354;2023-05-16T00:50:22;20.50;;;16.63;;
7833;SDS011;3962;42.696;23.354;2023-05-16T00:52:53;23.93;;;17.43;;
7833;SDS011;3962;42.696;23.354;2023-05-16T00:55:28;22.63;;;17.83;;
7833;SDS011;3962;42.696;23.354;2023-05-16T00:58:00;23.20;;;17.40;;
7833;SDS011;3962;42.696;23.354;2023-05-16T01:00:27;24.20;;;17.40;;
7833;SDS011;3962;42.696;23.354;2023-05-16T01:02:56;21.90;;;17.83;;
7833;SDS011;3962;42.696;23.354;2023-05-16T01:05:25;23.60;;;16.53;;
7833;SDS011;3962;42.696;23.354;2023-05-16T01:08:01;22.93;;;16.57;;
7833;SDS011;3962;42.696;23.354;2023-05-16T01:10:28;25.10;;;17.43;;
7833;SDS011;3962;42.696;23.354;2023-05-16T01:13:23;26.10;;;18.07;;
7833;SDS011;3962;42.696;23.354;2023-05-16T01:15:59;26.93;;;18.63;;
7833;SDS011;3962;42.696;23.354;2023-05-16T01:21:08;23.10;;;17.43;;
7833;SDS011;3962;42.696;23.354;2023-05-16T01:23:46;24.60;;;18.93;;
7833;SDS011;3962;42.696;23.354;2023-05-16T01:28:52;20.87;;;16.73;;
7833;SDS011;3962;42.696;23.354;2023-05-16T01:31:20;23.97;;;17.47;;
7833;SDS011;3962;42.696;23.354;2023-05-16T01:33:51;24.40;;;17.10;;
7833;SDS011;3962;42.696;23.354;2023-05-16T01:36:29;25.47;;;18.77;;
7833;SDS011;3962;42.696;23.354;2023-05-16T01:39:05;26.73;;;18.27;;
7833;SDS011;3962;42.696;23.354;2023-05-16T01:41:40;22.87;;;16.97;;
7833;SDS011;3962;42.696;23.354;2023-05-16T01:44:16;24.53;;;17.97;;
7833;SDS011;3962;42.696;23.354;2023-05-16T01:46:54;25.00;;;17.27;;
7833;SDS011;3962;42.696;23.354;2023-05-16T01:49:28;24.23;;;17.30;;
7833;SDS011;3962;42.696;23.354;2023-05-16T01:52:00;23.83;;;17.50;;
7833;SDS011;3962;42.696;23.354;2023-05-16T01:54:44;24.40;;;17.77;;
7833;SDS011;3962;42.696;23.354;2023-05-16T01:57:16;28.70;;;17.60;;
7833;SDS011;3962;42.696;23.354;2023-05-16T01:59:44;20.73;;;15.47;;
7833;SDS011;3962;42.696;23.354;2023-05-16T02:02:16;20.17;;;14.27;;
7833;SDS011;3962;42.696;23.354;2023-05-16T02:04:50;21.47;;;15.13;;
7833;SDS011;3962;42.696;23.354;2023-05-16T02:07:19;22.43;;;15.67;;
7833;SDS011;3962;42.696;23.354;2023-05-16T02:09:59;18.87;;;14.50;;
7833;SDS011;3962;42.696;23.354;2023-05-16T02:12:27;22.50;;;14.20;;
7833;SDS011;3962;42.696;23.354;2023-05-16T02:17:34;18.23;;;13.57;;
7833;SDS011;3962;42.696;23.354;2023-05-16T02:20:05;20.10;;;13.47;;
7833;SDS011;3962;42.696;23.354;2023-05-16T02:22:35;17.07;;;13.63;;
7833;SDS011;3962;42.696;23.354;2023-05-16T02:27:35;22.40;;;13.80;;
7833;SDS011;3962;42.696;23.354;2023-05-16T02:30:09;17.80;;;13.53;;
7833;SDS011;3962;42.696;23.354;2023-05-16T02:32:47;14.87;;;12.70;;
7833;SDS011;3962;42.696;23.354;2023-05-16T02:35:19;18.33;;;13.00;;
7833;SDS011;3962;42.696;23.354;2023-05-16T02:37:52;18.03;;;13.20;;
7833;SDS011;3962;42.696;23.354;2023-05-16T02:43:20;14.90;;;12.23;;
7833;SDS011;3962;42.696;23.354;2023-05-16T02:45:46;15.47;;;11.93;;
7833;SDS011;3962;42.696;23.354;2023-05-16T02:48:15;17.70;;;12.30;;
7833;SDS011;3962;42.696;23.354;2023-05-16T02:50:42;16.67;;;12.40;;
7833;SDS011;3962;42.696;23.354;2023-05-16T02:53:11;17.73;;;12.67;;
7833;SDS011;3962;42.696;23.354;2023-05-16T02:55:38;21.37;;;13.77;;
7833;SDS011;3962;42.696;23.354;2023-05-16T02:58:05;18.73;;;12.93;;
7833;SDS011;3962;42.696;23.354;2023-05-16T03:00:35;18.87;;;12.83;;
7833;SDS011;3962;42.696;23.354;2023-05-16T03:03:04;29.90;;;15.73;;
7833;SDS011;3962;42.696;23.354;2023-05-16T03:05:33;25.60;;;14.43;;
7833;SDS011;3962;42.696;23.354;2023-05-16T03:08:00;26.23;;;13.47;;
7833;SDS011;3962;42.696;23.354;2023-05-16T03:10:30;16.33;;;12.27;;
7833;SDS011;3962;42.696;23.354;2023-05-16T03:13:00;24.00;;;13.57;;
7833;SDS011;3962;42.696;23.354;2023-05-16T03:15:35;22.37;;;13.27;;
7833;SDS011;3962;42.696;23.354;2023-05-16T03:18:08;27.40;;;14.13;;
7833;SDS011;3962;42.696;23.354;2023-05-16T03:20:47;18.67;;;13.27;;
7833;SDS011;3962;42.696;23.354;2023-05-16T03:25:47;23.50;;;13.53;;
7833;SDS011;3962;42.696;23.354;2023-05-16T03:30:58;20.40;;;13.57;;
7833;SDS011;3962;42.696;23.354;2023-05-16T03:33:32;16.93;;;14.13;;
7833;SDS011;3962;42.696;23.354;2023-05-16T03:38:31;21.50;;;13.90;;
7833;SDS011;3962;42.696;23.354;2023-05-16T03:43:55;16.07;;;12.70;;
7833;SDS011;3962;42.696;23.354;2023-05-16T03:46:24;16.87;;;13.37;;
7833;SDS011;3962;42.696;23.354;2023-05-16T03:48:52;24.37;;;14.27;;
7833;SDS011;3962;42.696;23.354;2023-05-16T03:51:23;17.30;;;13.00;;
7833;SDS011;3962;42.696;23.354;2023-05-16T03:53:52;23.10;;;14.57;;
7833;SDS011;3962;42.696;23.354;2023-05-16T04:01:31;12.67;;;9.47;;
7833;SDS011;3962;42.696;23.354;2023-05-16T04:03:58;15.73;;;12.57;;
7833;SDS011;3962;42.696;23.354;2023-05-16T04:06:25;17.77;;;13.00;;
7833;SDS011;3962;42.696;23.354;2023-05-16T04:08:52;18.67;;;12.97;;
7833;SDS011;3962;42.696;23.354;2023-05-16T04:11:19;18.73;;;12.80;;
7833;SDS011;3962;42.696;23.354;2023-05-16T04:13:46;18.67;;;13.60;;
7833;SDS011;3962;42.696;23.354;2023-05-16T04:16:12;17.10;;;12.50;;
7833;SDS011;3962;42.696;23.354;2023-05-16T04:18:41;20.40;;;12.83;;
7833;SDS011;3962;42.696;23.354;2023-05-16T04:21:08;17.07;;;13.87;;
7833;SDS011;3962;42.696;23.354;2023-05-16T04:23:39;18.27;;;13.97;;
7833;SDS011;3962;42.696;23.354;2023-05-16T04:26:06;17.17;;;13.70;;
7833;SDS011;3962;42.696;23.354;2023-05-16T04:28:33;18.50;;;14.17;;
7833;SDS011;3962;42.696;23.354;2023-05-16T04:31:00;20.43;;;14.03;;
7833;SDS011;3962;42.696;23.354;2023-05-16T04:33:27;17.70;;;12.90;;
7833;SDS011;3962;42.696;23.354;2023-05-16T04:35:55;23.33;;;14.37;;
7833;SDS011;3962;42.696;23.354;2023-05-16T04:38:23;21.50;;;14.63;;
7833;SDS011;3962;42.696;23.354;2023-05-16T04:40:50;19.97;;;13.57;;
7833;SDS011;3962;42.696;23.354;2023-05-16T04:43:17;18.47;;;13.37;;
7833;SDS011;3962;42.696;23.354;2023-05-16T04:45:44;22.73;;;14.73;;
7833;SDS011;3962;42.696;23.354;2023-05-16T04:48:12;23.10;;;15.07;;
7833;SDS011;3962;42.696;23.354;2023-05-16T04:50:39;26.10;;;14.93;;
7833;SDS011;3962;42.696;23.354;2023-05-16T04:53:07;24.47;;;13.90;;
7833;SDS011;3962;42.696;23.354;2023-05-16T04:55:34;20.03;;;14.43;;
7833;SDS011;3962;42.696;23.354;2023-05-16T04:58:01;22.25;;;15.20;;
7833;SDS011;3962;42.696;23.354;2023-05-16T05:00:28;19.30;;;14.00;;
7833;SDS011;3962;42.696;23.354;2023-05-16T05:02:55;26.67;;;15.63;;
7833;SDS011;3962;42.696;23.354;2023-05-16T05:05:22;21.40;;;14.23;;
7833;SDS011;3962;42.696;23.354;2023-05-16T05:07:49;23.33;;;14.93;;
7833;SDS011;3962;42.696;23.354;2023-05-16T05:10:18;22.50;;;15.07;;
7833;SDS011;3962;42.696;23.354;2023-05-16T05:12:45;22.40;;;14.40;;
7833;SDS011;3962;42.696;23.354;2023-05-16T05:15:11;22.07;;;14.13;;
7833;SDS011;3962;42.696;23.354;2023-05-16T05:17:38;18.90;;;14.57;;
7833;SDS011;3962;42.696;23.354;2023-05-16T05:20:05;22.17;;;14.83;;
7833;SDS011;3962;42.696;23.354;2023-05-16T05:22:34;23.03;;;15.50;;
7833;SDS011;3962;42.696;23.354;2023-05-16T05:25:01;21.03;;;16.17;;
7833;SDS011;3962;42.696;23.354;2023-05-16T05:27:30;30.73;;;14.90;;
7833;SDS011;3962;42.696;23.354;2023-05-16T05:29:57;25.17;;;15.63;;
7833;SDS011;3962;42.696;23.354;2023-05-16T05:32:24;26.53;;;15.17;;
7833;SDS011;3962;42.696;23.354;2023-05-16T05:34:51;26.57;;;16.63;;
7833;SDS011;3962;42.696;23.354;2023-05-16T05:37:18;32.43;;;17.67;;
7833;SDS011;3962;42.696;23.354;2023-05-16T05:39:45;29.73;;;16.50;;
7833;SDS011;3962;42.696;23.354;2023-05-16T05:42:12;30.20;;;17.33;;
7833;SDS011;3962;42.696;23.354;2023-05-16T05:44:40;27.80;;;15.70;;
7833;SDS011;3962;42.696;23.354;2023-05-16T05:47:07;28.43;;;15.37;;
7833;SDS011;3962;42.696;23.354;2023-05-16T05:49:34;22.37;;;14.23;;
7833;SDS011;3962;42.696;23.354;2023-05-16T05:52:01;19.23;;;13.77;;
7833;SDS011;3962;42.696;23.354;2023-05-16T05:54:28;23.07;;;14.07;;
7833;SDS011;3962;42.696;23.354;2023-05-16T05:56:55;18.10;;;13.33;;
7833;SDS011;3962;42.696;23.354;2023-05-16T05:59:23;21.00;;;13.30;;
7833;SDS011;3962;42.696;23.354;2023-05-16T06:01:52;18.97;;;12.53;;
7833;SDS011;3962;42.696;23.354;2023-05-16T06:04:19;17.47;;;13.43;;
7833;SDS011;3962;42.696;23.354;2023-05-16T06:06:47;19.40;;;12.53;;
7833;SDS011;3962;42.696;23.354;2023-05-16T06:09:15;26.30;;;13.37;;
7833;SDS011;3962;42.696;23.354;2023-05-16T06:11:41;22.17;;;13.77;;
7833;SDS011;3962;42.696;23.354;2023-05-16T06:14:10;19.93;;;13.17;;
7833;SDS011;3962;42.696;23.354;2023-05-16T06:16:36;25.23;;;14.63;;
7833;SDS011;3962;42.696;23.354;2023-05-16T06:19:06;18.60;;;14.60;;
7833;SDS011;3962;42.696;23.354;2023-05-16T06:21:33;22.10;;;13.03;;
7833;SDS011;3962;42.696;23.354;2023-05-16T06:24:00;24.57;;;12.87;;
7833;SDS011;3962;42.696;23.354;2023-05-16T06:26:27;20.37;;;12.37;;
7833;SDS011;3962;42.696;23.354;2023-05-16T06:28:54;20.60;;;13.20;;
7833;SDS011;3962;42.696;23.354;2023-05-16T06:31:21;19.90;;;13.07;;
7833;SDS011;3962;42.696;23.354;2023-05-16T06:33:48;19.03;;;12.10;;
7833;SDS011;3962;42.696;23.354;2023-05-16T06:36:16;17.47;;;12.43;;
7833;SDS011;3962;42.696;23.354;2023-05-16T06:38:43;19.50;;;12.90;;
7833;SDS011;3962;42.696;23.354;2023-05-16T06:41:10;21.90;;;13.03;;
7833;SDS011;3962;42.696;23.354;2023-05-16T06:43:37;20.70;;;12.83;;
7833;SDS011;3962;42.696;23.354;2023-05-16T06:46:05;21.03;;;12.47;;
7833;SDS011;3962;42.696;23.354;2023-05-16T06:48:32;16.90;;;13.00;;
7833;SDS011;3962;42.696;23.354;2023-05-16T06:51:00;23.53;;;13.97;;
7833;SDS011;3962;42.696;23.354;2023-05-16T06:53:28;23.23;;;13.30;;
7833;SDS011;3962;42.696;23.354;2023-05-16T06:55:55;22.93;;;13.37;;
7833;SDS011;3962;42.696;23.354;2023-05-16T06:58:22;23.07;;;13.77;;
7833;SDS011;3962;42.696;23.354;2023-05-16T07:00:49;36.00;;;15.77;;
7833;SDS011;3962;42.696;23.354;2023-05-16T07:03:17;30.67;;;16.50;;
7833;SDS011;3962;42.696;23.354;2023-05-16T07:05:44;23.00;;;13.00;;
7833;SDS011;3962;42.696;23.354;2023-05-16T07:08:10;19.97;;;13.37;;
7833;SDS011;3962;42.696;23.354;2023-05-16T07:10:39;27.07;;;13.27;;
7833;SDS011;3962;42.696;23.354;2023-05-16T07:13:05;23.47;;;13.03;;
7833;SDS011;3962;42.696;23.354;2023-05-16T07:15:32;20.40;;;12.50;;
7833;SDS011;3962;42.696;23.354;2023-05-16T07:17:59;18.53;;;11.40;;
7833;SDS011;3962;42.696;23.354;2023-05-16T07:20:26;16.73;;;10.53;;
7833;SDS011;3962;42.696;23.354;2023-05-16T07:22:53;22.33;;;11.37;;
7833;SDS011;3962;42.696;23.354;2023-05-16T07:25:23;17.70;;;10.83;;
7833;SDS011;3962;42.696;23.354;2023-05-16T07:27:51;21.23;;;10.60;;
7833;SDS011;3962;42.696;23.354;2023-05-16T07:30:18;19.50;;;11.47;;
7833;SDS011;3962;42.696;23.354;2023-05-16T07:32:46;17.97;;;11.27;;
7833;SDS011;3962;42.696;23.354;2023-05-16T07:35:12;20.43;;;11.50;;
7833;SDS011;3962;42.696;23.354;2023-05-16T07:37:39;13.30;;;9.70;;
7833;SDS011;3962;42.696;23.354;2023-05-16T07:40:08;16.30;;;9.57;;
7833;SDS011;3962;42.696;23.354;2023-05-16T07:42:35;15.43;;;10.13;;
7833;SDS011;3962;42.696;23.354;2023-05-16T07:45:04;15.83;;;10.53;;
7833;SDS011;3962;42.696;23.354;2023-05-16T07:47:32;17.80;;;11.13;;
7833;SDS011;3962;42.696;23.354;2023-05-16T07:49:59;19.70;;;10.77;;
7833;SDS011;3962;42.696;23.354;2023-05-16T07:52:26;18.40;;;11.10;;
7833;SDS011;3962;42.696;23.354;2023-05-16T07:54:53;16.87;;;10.13;;
7833;SDS011;3962;42.696;23.354;2023-05-16T07:57:21;14.57;;;10.60;;
7833;SDS011;3962;42.696;23.354;2023-05-16T07:59:48;15.60;;;9.40;;
7833;SDS011;3962;42.696;23.354;2023-05-16T08:02:17;15.23;;;9.60;;
7833;SDS011;3962;42.696;23.354;2023-05-16T08:04:44;21.87;;;10.60;;
7833;SDS011;3962;42.696;23.354;2023-05-16T08:07:13;16.87;;;10.47;;
7833;SDS011;3962;42.696;23.354;2023-05-16T08:09:40;16.97;;;11.27;;
7833;SDS011;3962;42.696;23.354;2023-05-16T08:12:07;19.20;;;10.60;;
7833;SDS011;3962;42.696;23.354;2023-05-16T08:14:34;18.93;;;11.50;;
7833;SDS011;3962;42.696;23.354;2023-05-16T08:17:02;16.33;;;10.90;;
7833;SDS011;3962;42.696;23.354;2023-05-16T08:19:30;15.40;;;10.07;;
7833;SDS011;3962;42.696;23.354;2023-05-16T08:21:58;17.50;;;10.63;;
7833;SDS011;3962;42.696;23.354;2023-05-16T08:24:24;17.37;;;11.00;;
7833;SDS011;3962;42.696;23.354;2023-05-16T08:26:51;20.87;;;11.33;;
7833;SDS011;3962;42.696;23.354;2023-05-16T08:29:18;27.17;;;11.27;;
7833;SDS011;3962;42.696;23.354;2023-05-16T08:31:45;19.33;;;11.50;;
7833;SDS011;3962;42.696;23.354;2023-05-16T08:34:12;21.00;;;10.90;;
7833;SDS011;3962;42.696;23.354;2023-05-16T08:36:41;19.57;;;11.00;;
7833;SDS011;3962;42.696;23.354;2023-05-16T08:39:08;14.77;;;9.97;;
7833;SDS011;3962;42.696;23.354;2023-05-16T08:41:36;70.73;;;27.00;;
7833;SDS011;3962;42.696;23.354;2023-05-16T08:44:04;92.60;;;37.67;;
7833;SDS011;3962;42.696;23.354;2023-05-16T08:46:31;23.93;;;12.83;;
7833;SDS011;3962;42.696;23.354;2023-05-16T08:49:00;23.40;;;12.20;;
7833;SDS011;3962;42.696;23.354;2023-05-16T08:51:30;136.83;;;50.77;;
7833;SDS011;3962;42.696;23.354;2023-05-16T08:54:02;73.53;;;33.43;;
7833;SDS011;3962;42.696;23.354;2023-05-16T08:56:31;28.27;;;14.97;;
7833;SDS011;3962;42.696;23.354;2023-05-16T08:58:59;30.17;;;13.67;;
7833;SDS011;3962;42.696;23.354;2023-05-16T09:01:29;21.83;;;11.67;;
7833;SDS011;3962;42.696;23.354;2023-05-16T09:03:56;16.53;;;10.37;;
7833;SDS011;3962;42.696;23.354;2023-05-16T09:06:24;17.13;;;10.53;;
7833;SDS011;3962;42.696;23.354;2023-05-16T09:08:53;19.17;;;10.43;;
7833;SDS011;3962;42.696;23.354;2023-05-16T09:11:21;18.70;;;9.53;;
7833;SDS011;3962;42.696;23.354;2023-05-16T09:13:48;14.60;;;9.47;;
7833;SDS011;3962;42.696;23.354;2023-05-16T09:16:16;23.67;;;10.47;;
7833;SDS011;3962;42.696;23.354;2023-05-16T09:18:45;21.87;;;9.80;;
7833;SDS011;3962;42.696;23.354;2023-05-16T09:21:18;16.07;;;8.57;;
7833;SDS011;3962;42.696;23.354;2023-05-16T09:23:47;3.37;;;1.97;;
7833;SDS011;3962;42.696;23.354;2023-05-16T09:26:15;14.17;;;5.83;;
7833;SDS011;3962;42.696;23.354;2023-05-16T09:28:43;7.93;;;5.83;;
7833;SDS011;3962;42.696;23.354;2023-05-16T09:31:19;2.83;;;1.50;;
7833;SDS011;3962;42.696;23.354;2023-05-16T09:33:47;1.00;;;0.93;;
7833;SDS011;3962;42.696;23.354;2023-05-16T09:36:15;8.63;;;2.83;;
7833;SDS011;3962;42.696;23.354;2023-05-16T09:38:42;3.00;;;1.33;;
7833;SDS011;3962;42.696;23.354;2023-05-16T09:41:10;4.90;;;3.70;;
7833;SDS011;3962;42.696;23.354;2023-05-16T09:43:39;8.73;;;5.47;;
7833;SDS011;3962;42.696;23.354;2023-05-16T09:46:10;0.83;;;0.80;;
7833;SDS011;3962;42.696;23.354;2023-05-16T09:48:39;1.40;;;0.77;;
7833;SDS011;3962;42.696;23.354;2023-05-16T09:51:07;0.43;;;0.43;;
7833;SDS011;3962;42.696;23.354;2023-05-16T09:53:34;11.87;;;5.20;;
7833;SDS011;3962;42.696;23.354;2023-05-16T09:56:04;5.20;;;2.03;;
7833;SDS011;3962;42.696;23.354;2023-05-16T09:58:36;1.20;;;1.10;;
7833;SDS011;3962;42.696;23.354;2023-05-16T10:01:04;0.50;;;0.50;;
7833;SDS011;3962;42.696;23.354;2023-05-16T10:03:34;24.73;;;6.63;;
7833;SDS011;3962;42.696;23.354;2023-05-16T10:06:02;0.50;;;0.50;;
7833;SDS011;3962;42.696;23.354;2023-05-16T10:08:31;1.10;;;0.50;;
7833;SDS011;3962;42.696;23.354;2023-05-16T10:11:01;1.75;;;1.30;;
7833;SDS011;3962;42.696;23.354;2023-05-16T10:13:30;4.97;;;2.40;;
7833;SDS011;3962;42.696;23.354;2023-05-16T10:15:58;4.80;;;2.97;;
7833;SDS011;3962;42.696;23.354;2023-05-16T10:18:28;7.23;;;2.77;;
7833;SDS011;3962;42.696;23.354;2023-05-16T10:21:05;0.57;;;0.57;;
7833;SDS011;3962;42.696;23.354;2023-05-16T10:23:33;0.10;;;0.10;;
7833;SDS011;3962;42.696;23.354;2023-05-16T10:26:04;0.23;;;0.23;;
7833;SDS011;3962;42.696;23.354;2023-05-16T10:28:32;0.20;;;0.20;;
7833;SDS011;3962;42.696;23.354;2023-05-16T10:31:00;2.83;;;2.73;;
7833;SDS011;3962;42.696;23.354;2023-05-16T10:33:28;0.53;;;0.53;;
7833;SDS011;3962;42.696;23.354;2023-05-16T10:35:55;0.97;;;0.97;;
7833;SDS011;3962;42.696;23.354;2023-05-16T10:38:24;0.00;;;0.00;;
7833;SDS011;3962;42.696;23.354;2023-05-16T10:40:52;0.83;;;0.83;;
7833;SDS011;3962;42.696;23.354;2023-05-16T10:43:23;1.03;;;1.03;;
7833;SDS011;3962;42.696;23.354;2023-05-16T10:45:54;0.57;;;0.57;;
7833;SDS011;3962;42.696;23.354;2023-05-16T10:48:27;2.50;;;2.23;;
7833;SDS011;3962;42.696;23.354;2023-05-16T10:50:54;5.00;;;2.80;;
7833;SDS011;3962;42.696;23.354;2023-05-16T10:53:28;4.37;;;2.77;;
7833;SDS011;3962;42.696;23.354;2023-05-16T10:56:05;2.63;;;2.43;;
7833;SDS011;3962;42.696;23.354;2023-05-16T10:58:40;5.50;;;2.93;;
7833;SDS011;3962;42.696;23.354;2023-05-16T11:01:16;5.17;;;3.17;;
7833;SDS011;3962;42.696;23.354;2023-05-16T11:06:32;0.70;;;0.60;;
7833;SDS011;3962;42.696;23.354;2023-05-16T11:09:05;8.87;;;4.17;;
7833;SDS011;3962;42.696;23.354;2023-05-16T11:11:38;10.80;;;5.03;;
7833;SDS011;3962;42.696;23.354;2023-05-16T11:14:16;3.77;;;3.10;;
7833;SDS011;3962;42.696;23.354;2023-05-16T11:16:47;10.60;;;6.40;;
7833;SDS011;3962;42.696;23.354;2023-05-16T11:19:27;11.70;;;4.93;;
7833;SDS011;3962;42.696;23.354;2023-05-16T11:24:50;6.77;;;4.40;;
7833;SDS011;3962;42.696;23.354;2023-05-16T11:27:23;5.40;;;3.93;;
7833;SDS011;3962;42.696;23.354;2023-05-16T11:29:52;13.00;;;7.00;;
7833;SDS011;3962;42.696;23.354;2023-05-16T11:32:21;13.93;;;6.53;;
7833;SDS011;3962;42.696;23.354;2023-05-16T11:34:48;16.43;;;6.77;;
7833;SDS011;3962;42.696;23.354;2023-05-16T11:37:16;1.20;;;1.07;;
7833;SDS011;3962;42.696;23.354;2023-05-16T11:39:44;2.23;;;1.70;;
7833;SDS011;3962;42.696;23.354;2023-05-16T11:42:12;11.83;;;7.83;;
7833;SDS011;3962;42.696;23.354;2023-05-16T11:44:39;22.53;;;7.87;;
7833;SDS011;3962;42.696;23.354;2023-05-16T11:47:07;4.00;;;2.67;;
7833;SDS011;3962;42.696;23.354;2023-05-16T11:49:34;0.97;;;0.67;;
7833;SDS011;3962;42.696;23.354;2023-05-16T11:52:01;8.63;;;3.80;;
7833;SDS011;3962;42.696;23.354;2023-05-16T11:54:28;14.60;;;7.37;;
7833;SDS011;3962;42.696;23.354;2023-05-16T11:56:55;23.67;;;7.00;;
7833;SDS011;3962;42.696;23.354;2023-05-16T11:59:24;3.23;;;1.63;;
7833;SDS011;3962;42.696;23.354;2023-05-16T12:01:51;8.70;;;1.97;;
7833;SDS011;3962;42.696;23.354;2023-05-16T12:04:18;7.63;;;3.63;;
7833;SDS011;3962;42.696;23.354;2023-05-16T12:06:56;9.60;;;5.10;;
7833;SDS011;3962;42.696;23.354;2023-05-16T12:09:23;0.87;;;0.87;;
7833;SDS011;3962;42.696;23.354;2023-05-16T12:11:50;5.43;;;1.90;;
7833;SDS011;3962;42.696;23.354;2023-05-16T12:14:17;0.67;;;0.67;;
7833;SDS011;3962;42.696;23.354;2023-05-16T12:16:46;9.40;;;4.23;;
7833;SDS011;3962;42.696;23.354;2023-05-16T12:19:14;13.70;;;6.43;;
7833;SDS011;3962;42.696;23.354;2023-05-16T12:21:41;3.10;;;2.13;;
7833;SDS011;3962;42.696;23.354;2023-05-16T12:24:09;9.60;;;5.00;;
7833;SDS011;3962;42.696;23.354;2023-05-16T12:26:38;1.63;;;1.53;;
7833;SDS011;3962;42.696;23.354;2023-05-16T12:29:06;9.17;;;3.80;;
7833;SDS011;3962;42.696;23.354;2023-05-16T12:31:36;7.07;;;4.17;;
7833;SDS011;3962;42.696;23.354;2023-05-16T12:34:05;5.83;;;3.40;;
7833;SDS011;3962;42.696;23.354;2023-05-16T12:36:41;19.50;;;7.33;;
7833;SDS011;3962;42.696;23.354;2023-05-16T12:39:10;7.90;;;2.90;;
7833;SDS011;3962;42.696;23.354;2023-05-16T12:41:39;2.80;;;2.20;;
7833;SDS011;3962;42.696;23.354;2023-05-16T12:44:10;1.93;;;1.80;;
7833;SDS011;3962;42.696;23.354;2023-05-16T12:46:45;7.67;;;4.37;;
7833;SDS011;3962;42.696;23.354;2023-05-16T12:49:17;0.97;;;0.97;;
7833;SDS011;3962;42.696;23.354;2023-05-16T12:51:49;13.77;;;7.33;;
7833;SDS011;3962;42.696;23.354;2023-05-16T12:54:16;13.37;;;8.20;;
7833;SDS011;3962;42.696;23.354;2023-05-16T12:56:44;13.30;;;6.60;;
7833;SDS011;3962;42.696;23.354;2023-05-16T12:59:11;16.43;;;9.23;;
7833;SDS011;3962;42.696;23.354;2023-05-16T13:01:38;14.83;;;8.43;;
7833;SDS011;3962;42.696;23.354;2023-05-16T13:04:06;22.00;;;9.93;;
7833;SDS011;3962;42.696;23.354;2023-05-16T13:06:34;10.43;;;6.77;;
7833;SDS011;3962;42.696;23.354;2023-05-16T13:09:02;16.03;;;9.47;;
7833;SDS011;3962;42.696;23.354;2023-05-16T13:11:29;13.13;;;8.50;;
7833;SDS011;3962;42.696;23.354;2023-05-16T13:13:56;14.43;;;8.00;;
7833;SDS011;3962;42.696;23.354;2023-05-16T13:16:23;10.33;;;6.73;;
7833;SDS011;3962;42.696;23.354;2023-05-16T13:18:50;0.87;;;0.87;;
7833;SDS011;3962;42.696;23.354;2023-05-16T13:21:23;4.07;;;2.53;;
7833;SDS011;3962;42.696;23.354;2023-05-16T13:23:53;16.17;;;8.33;;
7833;SDS011;3962;42.696;23.354;2023-05-16T13:26:20;1.07;;;0.80;;
7833;SDS011;3962;42.696;23.354;2023-05-16T13:28:47;18.43;;;8.30;;
7833;SDS011;3962;42.696;23.354;2023-05-16T13:31:17;17.73;;;8.33;;
7833;SDS011;3962;42.696;23.354;2023-05-16T13:33:44;14.70;;;7.90;;
7833;SDS011;3962;42.696;23.354;2023-05-16T13:36:11;0.57;;;0.57;;
7833;SDS011;3962;42.696;23.354;2023-05-16T13:38:38;2.40;;;1.73;;
7833;SDS011;3962;42.696;23.354;2023-05-16T13:41:06;0.00;;;0.00;;
7833;SDS011;3962;42.696;23.354;2023-05-16T13:43:47;0.20;;;0.20;;
7833;SDS011;3962;42.696;23.354;2023-05-16T13:46:14;0.40;;;0.40;;
7833;SDS011;3962;42.696;23.354;2023-05-16T13:48:40;25.30;;;10.90;;
7833;SDS011;3962;42.696;23.354;2023-05-16T13:51:08;14.73;;;9.43;;
7833;SDS011;3962;42.696;23.354;2023-05-16T13:53:35;17.93;;;8.57;;
7833;SDS011;3962;42.696;23.354;2023-05-16T13:56:03;15.43;;;9.17;;
7833;SDS011;3962;42.696;23.354;2023-05-16T13:58:32;15.17;;;8.23;;
7833;SDS011;3962;42.696;23.354;2023-05-16T14:00:59;16.13;;;8.60;;
7833;SDS011;3962;42.696;23.354;2023-05-16T14:03:27;12.93;;;6.80;;
7833;SDS011;3962;42.696;23.354;2023-05-16T14:05:54;3.70;;;1.80;;
7833;SDS011;3962;42.696;23.354;2023-05-16T14:08:23;15.83;;;8.97;;
7833;SDS011;3962;42.696;23.354;2023-05-16T14:10:50;19.10;;;9.67;;
7833;SDS011;3962;42.696;23.354;2023-05-16T14:13:17;15.40;;;8.77;;
7833;SDS011;3962;42.696;23.354;2023-05-16T14:15:46;17.53;;;8.87;;
7833;SDS011;3962;42.696;23.354;2023-05-16T14:18:13;14.83;;;9.43;;
7833;SDS011;3962;42.696;23.354;2023-05-16T14:20:41;6.50;;;5.03;;
7833;SDS011;3962;42.696;23.354;2023-05-16T14:23:08;8.00;;;4.80;;
7833;SDS011;3962;42.696;23.354;2023-05-16T14:25:35;17.60;;;9.80;;
7833;SDS011;3962;42.696;23.354;2023-05-16T14:28:02;18.47;;;10.33;;
7833;SDS011;3962;42.696;23.354;2023-05-16T14:30:31;23.77;;;10.97;;
7833;SDS011;3962;42.696;23.354;2023-05-16T14:33:06;19.13;;;9.80;;
7833;SDS011;3962;42.696;23.354;2023-05-16T14:35:33;16.97;;;10.17;;
7833;SDS011;3962;42.696;23.354;2023-05-16T14:38:02;19.43;;;10.30;;
7833;SDS011;3962;42.696;23.354;2023-05-16T14:40:31;18.17;;;10.10;;
7833;SDS011;3962;42.696;23.354;2023-05-16T14:42:58;20.23;;;10.80;;
7833;SDS011;3962;42.696;23.354;2023-05-16T14:45:28;22.20;;;10.53;;
7833;SDS011;3962;42.696;23.354;2023-05-16T14:47:55;21.43;;;11.80;;
7833;SDS011;3962;42.696;23.354;2023-05-16T14:50:26;116.63;;;73.37;;
7833;SDS011;3962;42.696;23.354;2023-05-16T14:52:53;43.03;;;17.37;;
7833;SDS011;3962;42.696;23.354;2023-05-16T14:55:20;94.63;;;51.53;;
7833;SDS011;3962;42.696;23.354;2023-05-16T14:57:48;20.53;;;12.97;;
7833;SDS011;3962;42.696;23.354;2023-05-16T15:00:22;23.80;;;11.80;;
7833;SDS011;3962;42.696;23.354;2023-05-16T15:02:52;24.03;;;11.23;;
7833;SDS011;3962;42.696;23.354;2023-05-16T15:05:19;29.63;;;13.47;;
7833;SDS011;3962;42.696;23.354;2023-05-16T15:07:48;27.40;;;13.63;;
7833;SDS011;3962;42.696;23.354;2023-05-16T15:10:16;27.80;;;12.30;;
7833;SDS011;3962;42.696;23.354;2023-05-16T15:12:44;27.40;;;14.47;;
7833;SDS011;3962;42.696;23.354;2023-05-16T15:15:12;21.50;;;13.10;;
7833;SDS011;3962;42.696;23.354;2023-05-16T15:17:40;24.53;;;13.70;;
7833;SDS011;3962;42.696;23.354;2023-05-16T15:20:07;29.43;;;15.03;;
7833;SDS011;3962;42.696;23.354;2023-05-16T15:22:36;24.83;;;16.07;;
7833;SDS011;3962;42.696;23.354;2023-05-16T15:25:06;24.83;;;13.83;;
7833;SDS011;3962;42.696;23.354;2023-05-16T15:27:33;27.63;;;14.37;;
7833;SDS011;3962;42.696;23.354;2023-05-16T15:30:00;21.43;;;13.07;;
7833;SDS011;3962;42.696;23.354;2023-05-16T15:32:27;18.90;;;12.47;;
7833;SDS011;3962;42.696;23.354;2023-05-16T15:34:54;23.17;;;11.57;;
7833;SDS011;3962;42.696;23.354;2023-05-16T15:37:22;19.87;;;13.77;;